Gazela Primeiro — WTN7110 — position and weather

sailwx.info

Track history (hours):
 
Tides and Currents Weather Stations Pressure Air Temp Water Temp Dewpoint Dewpoint Depression Visibility Wind Speed Wind Dir Waves Ship Positions

Gazela Primeiro (United States)

Ship's website: http://www.gazela.org/

Owner: Philadelphia Ship Preservation Guild (PSPG), PHILADELPHIA, PA. More information available from US FCC via Universal Licensing System and Coast Guard Vessel Documentation Center.

Last reported at 2016-Jun-01 06:33 UTC. Time now 2016-Jun-01 07:29 UTC.
Position N 39°32' W 075°49'.

Length 54 m; draft 5.2 m.

Type: Sailing vessel. MMSI: 367299860.

Date/timePositionNaut miles runAvg speedWind from/ knotsBaromVisibWave heightAir tempDewpointWater temp
2016-Jun-01 06:33N 39°32' W 075°49'0 0.0
2016-Jun-01 05:33N 39°32' W 075°49'0 0.0
2016-Jun-01 04:33N 39°32' W 075°49'0 0.0
2016-Jun-01 03:33N 39°32' W 075°49'0 0.0
2016-Jun-01 02:33N 39°32' W 075°49'0 0.0
2016-Jun-01 01:33N 39°32' W 075°49'0 0.0
2016-Jun-01 00:33N 39°32' W 075°49'0 0.0
2016-May-31 23:33N 39°32' W 075°49'0 0.0
2016-May-31 22:33N 39°32' W 075°49'0 0.0
2016-May-31 21:33N 39°32' W 075°49'0 0.0
2016-May-31 20:33N 39°32' W 075°49'5 5.1
2016-May-31 19:33N 39°33' W 075°42'5 5.1
2016-May-31 18:33N 39°33' W 075°36'6 6.0
2016-May-31 17:33N 39°39' W 075°33'10 9.8
2016-May-31 16:33N 39°47' W 075°27'9 8.8
2016-May-31 15:33N 39°51' W 075°16'8 8.3
2016-May-31 14:33N 39°57' W 075°08'0 0.0
2016-May-31 13:26N 39°57' W 075°08'0 0.0
2016-May-31 12:19N 39°57' W 075°08'0 0.0
2016-May-31 11:30N 39°57' W 075°08'0 0.0
2016-May-31 10:27N 39°57' W 075°08'0 0.0
2016-May-31 09:28N 39°57' W 075°08'0 0.0
2016-May-31 08:31N 39°57' W 075°08'0 0.0
2016-May-31 07:31N 39°57' W 075°08'0 0.0
2016-May-31 06:31N 39°57' W 075°08'0 0.0
2016-May-31 04:31N 39°57' W 075°08'0 0.0
2016-May-31 03:31N 39°57' W 075°08'0 0.0
2016-May-31 02:33N 39°57' W 075°08'0 0.0
2016-May-31 01:33N 39°57' W 075°08'0 0.0
2016-May-31 00:33N 39°57' W 075°08'0 0.0
2016-May-30 23:33N 39°57' W 075°08'0 0.0
2016-May-30 22:33N 39°57' W 075°08'0 0.0
2016-May-30 21:33N 39°57' W 075°08'0 0.0
2016-May-30 20:33N 39°57' W 075°08'0 0.0
2016-May-30 19:32N 39°57' W 075°08'0 0.0
2016-May-30 18:33N 39°57' W 075°08'0 0.0
2016-May-30 17:32N 39°57' W 075°08'0 0.0
2016-May-30 16:33N 39°57' W 075°08'0 0.0
2016-May-30 15:33N 39°57' W 075°08'0 0.0
2016-May-30 14:33N 39°57' W 075°08'0 0.0
2016-May-30 13:33N 39°57' W 075°08'0 0.0
2016-May-30 12:33N 39°57' W 075°08'0 0.0
2016-May-30 11:30N 39°57' W 075°08'0 0.0
2016-May-30 10:33N 39°57' W 075°08'0 0.0
2016-May-30 09:33N 39°57' W 075°08'0 0.0
2016-May-30 08:33N 39°57' W 075°08'0 0.0
2016-May-30 07:33N 39°57' W 075°08'0 0.0
2016-May-30 06:33N 39°57' W 075°08'0 0.0
2016-May-30 05:33N 39°57' W 075°08'0 0.0
2016-May-30 04:33N 39°57' W 075°08'0 0.0
2016-May-30 03:33N 39°57' W 075°08'0 0.0
2016-May-30 02:33N 39°57' W 075°08'0 0.0
2016-May-30 01:30N 39°57' W 075°08'0 0.0
2016-May-30 00:33N 39°57' W 075°08'0 0.0
2016-May-29 23:33N 39°57' W 075°08'0 0.0
2016-May-29 22:33N 39°57' W 075°08'0 0.0
2016-May-29 21:33N 39°57' W 075°08'0 0.0
2016-May-29 20:30N 39°57' W 075°08'0 0.0
2016-May-29 19:33N 39°57' W 075°08'0 0.0
2016-May-29 18:33N 39°57' W 075°08'0 0.0
2016-May-29 17:33N 39°57' W 075°08'0 0.0
2016-May-29 16:33N 39°57' W 075°08'0 0.0
2016-May-29 15:33N 39°57' W 075°08'0 0.0
2016-May-29 14:33N 39°57' W 075°08'0 0.0
2016-May-29 13:33N 39°57' W 075°08'0 0.0
2016-May-29 12:33N 39°57' W 075°08'0 0.0
2016-May-29 11:33N 39°57' W 075°08'0 0.0
2016-May-29 10:33N 39°57' W 075°08'0 0.0
2016-May-29 09:30N 39°57' W 075°08'0 0.0
2016-May-29 08:33N 39°57' W 075°08'0 0.0
2016-May-29 07:33N 39°57' W 075°08'0 0.0
2016-May-29 06:34N 39°57' W 075°08'0 0.0
2016-May-29 05:33N 39°57' W 075°08'0 0.0
2016-May-29 04:33N 39°57' W 075°08'0 0.0
2016-May-29 03:33N 39°57' W 075°08'0 0.0
2016-May-29 02:33N 39°57' W 075°08'0 0.0
2016-May-29 01:33N 39°57' W 075°08'0 0.0
2016-May-29 00:33N 39°57' W 075°08'0 0.0
2016-May-28 23:33N 39°57' W 075°08'0 0.0
2016-May-28 22:33N 39°57' W 075°08'0 0.0
2016-May-28 21:24N 39°57' W 075°08'0 0.0
2016-May-28 20:28N 39°57' W 075°08'0 0.0
2016-May-28 19:33N 39°57' W 075°08'0 0.0
2016-May-28 18:32N 39°57' W 075°08'0 0.0
2016-May-28 17:33N 39°57' W 075°08'0 0.0
2016-May-28 16:33N 39°57' W 075°08'  
Track history (hours):
 
Tides and Currents Weather Stations Pressure Air Temp Water Temp Dewpoint Dewpoint Depression Visibility Wind Speed Wind Dir Waves Ship Positions

Gazela Primeiro (United States)

Ship's website: http://www.gazela.org/

Owner: Philadelphia Ship Preservation Guild (PSPG), PHILADELPHIA, PA. More information available from US FCC via Universal Licensing System and Coast Guard Vessel Documentation Center.

Last reported at 2016-Jun-01 06:33 UTC. Time now 2016-Jun-01 07:29 UTC.
Position N 39°32' W 075°49'.

Length 54 m; draft 5.2 m.

Type: Sailing vessel. MMSI: 367299860.

Date/timePositionNaut miles runAvg speedWind from/ knotsBaromVisibWave heightAir tempDewpointWater temp
2016-Jun-01 06:33N 39°32' W 075°49'0 0.0
2016-Jun-01 05:33N 39°32' W 075°49'0 0.0
2016-Jun-01 04:33N 39°32' W 075°49'0 0.0
2016-Jun-01 03:33N 39°32' W 075°49'0 0.0
2016-Jun-01 02:33N 39°32' W 075°49'0 0.0
2016-Jun-01 01:33N 39°32' W 075°49'0 0.0
2016-Jun-01 00:33N 39°32' W 075°49'0 0.0
2016-May-31 23:33N 39°32' W 075°49'0 0.0
2016-May-31 22:33N 39°32' W 075°49'0 0.0
2016-May-31 21:33N 39°32' W 075°49'0 0.0
2016-May-31 20:33N 39°32' W 075°49'5 5.1
2016-May-31 19:33N 39°33' W 075°42'5 5.1
2016-May-31 18:33N 39°33' W 075°36'6 6.0
2016-May-31 17:33N 39°39' W 075°33'10 9.8
2016-May-31 16:33N 39°47' W 075°27'9 8.8
2016-May-31 15:33N 39°51' W 075°16'8 8.3
2016-May-31 14:33N 39°57' W 075°08'0 0.0
2016-May-31 13:26N 39°57' W 075°08'0 0.0
2016-May-31 12:19N 39°57' W 075°08'0 0.0
2016-May-31 11:30N 39°57' W 075°08'0 0.0
2016-May-31 10:27N 39°57' W 075°08'0 0.0
2016-May-31 09:28N 39°57' W 075°08'0 0.0
2016-May-31 08:31N 39°57' W 075°08'0 0.0
2016-May-31 07:31N 39°57' W 075°08'0 0.0
2016-May-31 06:31N 39°57' W 075°08'0 0.0
2016-May-31 04:31N 39°57' W 075°08'0 0.0
2016-May-31 03:31N 39°57' W 075°08'0 0.0
2016-May-31 02:33N 39°57' W 075°08'0 0.0
2016-May-31 01:33N 39°57' W 075°08'0 0.0
2016-May-31 00:33N 39°57' W 075°08'0 0.0
2016-May-30 23:33N 39°57' W 075°08'0 0.0
2016-May-30 22:33N 39°57' W 075°08'0 0.0
2016-May-30 21:33N 39°57' W 075°08'0 0.0
2016-May-30 20:33N 39°57' W 075°08'0 0.0
2016-May-30 19:32N 39°57' W 075°08'0 0.0
2016-May-30 18:33N 39°57' W 075°08'0 0.0
2016-May-30 17:32N 39°57' W 075°08'0 0.0
2016-May-30 16:33N 39°57' W 075°08'0 0.0
2016-May-30 15:33N 39°57' W 075°08'0 0.0
2016-May-30 14:33N 39°57' W 075°08'0 0.0
2016-May-30 13:33N 39°57' W 075°08'0 0.0
2016-May-30 12:33N 39°57' W 075°08'0 0.0
2016-May-30 11:30N 39°57' W 075°08'0 0.0
2016-May-30 10:33N 39°57' W 075°08'0 0.0
2016-May-30 09:33N 39°57' W 075°08'0 0.0
2016-May-30 08:33N 39°57' W 075°08'0 0.0
2016-May-30 07:33N 39°57' W 075°08'0 0.0
2016-May-30 06:33N 39°57' W 075°08'0 0.0
2016-May-30 05:33N 39°57' W 075°08'0 0.0
2016-May-30 04:33N 39°57' W 075°08'0 0.0
2016-May-30 03:33N 39°57' W 075°08'0 0.0
2016-May-30 02:33N 39°57' W 075°08'0 0.0
2016-May-30 01:30N 39°57' W 075°08'0 0.0
2016-May-30 00:33N 39°57' W 075°08'0 0.0
2016-May-29 23:33N 39°57' W 075°08'0 0.0
2016-May-29 22:33N 39°57' W 075°08'0 0.0
2016-May-29 21:33N 39°57' W 075°08'0 0.0
2016-May-29 20:30N 39°57' W 075°08'0 0.0
2016-May-29 19:33N 39°57' W 075°08'0 0.0
2016-May-29 18:33N 39°57' W 075°08'0 0.0
2016-May-29 17:33N 39°57' W 075°08'0 0.0
2016-May-29 16:33N 39°57' W 075°08'0 0.0
2016-May-29 15:33N 39°57' W 075°08'0 0.0
2016-May-29 14:33N 39°57' W 075°08'0 0.0
2016-May-29 13:33N 39°57' W 075°08'0 0.0
2016-May-29 12:33N 39°57' W 075°08'0 0.0
2016-May-29 11:33N 39°57' W 075°08'0 0.0
2016-May-29 10:33N 39°57' W 075°08'0 0.0
2016-May-29 09:30N 39°57' W 075°08'0 0.0
2016-May-29 08:33N 39°57' W 075°08'0 0.0
2016-May-29 07:33N 39°57' W 075°08'0 0.0
2016-May-29 06:34N 39°57' W 075°08'0 0.0
2016-May-29 05:33N 39°57' W 075°08'0 0.0
2016-May-29 04:33N 39°57' W 075°08'0 0.0
2016-May-29 03:33N 39°57' W 075°08'0 0.0
2016-May-29 02:33N 39°57' W 075°08'0 0.0
2016-May-29 01:33N 39°57' W 075°08'0 0.0
2016-May-29 00:33N 39°57' W 075°08'0 0.0
2016-May-28 23:33N 39°57' W 075°08'0 0.0
2016-May-28 22:33N 39°57' W 075°08'0 0.0
2016-May-28 21:24N 39°57' W 075°08'0 0.0
2016-May-28 20:28N 39°57' W 075°08'0 0.0
2016-May-28 19:33N 39°57' W 075°08'0 0.0
2016-May-28 18:32N 39°57' W 075°08'0 0.0
2016-May-28 17:33N 39°57' W 075°08'0 0.0
2016-May-28 16:33N 39°57' W 075°08'  

Dump ship's entire track history